Bishop, CA (93514)

9:54 AM PDT on August 21, 2014 (GMT -0700)
Bishop | Change Station
CLOSE
Current Station
Airport
Location: Bishop,
Elevation: 4144 ft
Nearby Weather Stations

Elev 4144 ft 37.37 °N, 118.36 °W | Updated 58 minutes ago

Clear
Clear
72 °F
Feels Like 72 °F
N
0
Wind Variable Wind from North

Today
High -- | Low -- °F
--% Chance of Precip.
Yesterday
High -- | Low -- °F
Precip. -- in
6:15 AM 7:38 PM
Waning Crescent, 13% visible
Pressure 29.95 in
Visibility 10.0 miles
Clouds Clear
Dew Point 35 °F
Humidity 26%
Rainfall 0.00 in
Snow Depth Not available.
UV 3 out of 12
Pollen 8.30 out of 12
Air Quality Not available.
Flu Activity Not available.
METAR KBIH 211556Z AUTO 00000KT 10SM CLR 22/02 A3009 RMK AO2 SLP140 T02220017

More Conditions Fewer Conditions

Pressure 29.95 in
Visibility 10.0 miles
Clouds Clear
Dew Point 35 °F
Humidity 26%
Rainfall 0.00 in
Snow Depth Not available.
UV 3 out of 12
Pollen 8.30 out of 12
Air Quality Not available.
Flu Activity Not available.
METAR KBIH 211556Z AUTO 00000KT 10SM CLR 22/02 A3009 RMK AO2 SLP140 T02220017

More Conditions Fewer Conditions

10-Day Weather Forecast

Almanac

Astronomy

Aug. 21, 2014 Rise Set
Actual Time 6:15 AM PDT 7:38 PM PDT
Civil Twilight 5:47 AM PDT 8:05 PM PDT
Nautical Twilight 5:15 AM PDT 8:38 PM PDT
Astronomical Twilight 4:40 AM PDT 9:12 PM PDT
Moon 2:51 AM PDT 5:08 PM PDT
Length of Visible Light 14h 17m
Length of Day
13h 22m
Tomorrow will be 2m 11s shorter.
Waning Crescent, 13% of the Moon is Illuminated
Today
Waning Crescent
Aug 25
New
Sep 2
First Quarter
Sep 8
Full
Sep 15
Last Quarter

Today's Extremes

State Highs State Lows

Community

WunderPhotos

Upload Photos

1,745,957 photos uploaded!

Nearby

Snow Depth

Station Depth Elevation
Sonora Pass 0 in 8800 ft
Monitor Pass 0 in 8350 ft
Blue Lakes 0 in 8000 ft
Forestdale Creek 0 in 8029 ft
Echo Peak 0 in 7800 ft

Earthquake Activity

City Distance Mag. Time & Date
Kettleman City, California 125 miles 2.9 11:32 PM PDT
2014-08-14
Minimum magnitude displayed is 2.5.

Coastal Water Temperatures

Place Temperature
No Stations Reporting

Nearby Weather Stations